Red Oak, IA

10:13 PM CDT on August 24, 2016 (GMT -0500)
NFS-1351 210th St | | Change Station

Elev 1083 ft 41.00 °N, 95.32 °W | Updated 8 minutes ago

Overcast
Overcast
68.0 °F
Feels Like 68.0 °F
N
0.0
Wind Variable Wind from North

Today
High -- | Low -- °F
--% Chance of Precip.
Yesterday
High -- | Low -- °F
Precip. -- in
Pressure 30.04 in
Visibility 10.0 miles
Clouds Few 5500 ft
Mostly Cloudy 7500 ft
Overcast 9000 ft
Dew Point 66 °F
Humidity 94%
Rainfall 0.87 in
Snow Depth Not available.
6:40 AM 8:05 PM
Waning Gibbous, 50% visible
METAR KRDK 250255Z AUTO 00000KT 10SM FEW055 BKN075 OVC090 20/19 A3004 RMK AO2
Pressure 30.04 in
Visibility 10.0 miles
Clouds Few 5500 ft
Mostly Cloudy 7500 ft
Overcast 9000 ft
Dew Point 66 °F
Humidity 94%
Rainfall 0.87 in
Snow Depth Not available.
6:40 AM 8:05 PM
Waning Gibbous, 50% visible
METAR KRDK 250255Z AUTO 00000KT 10SM FEW055 BKN075 OVC090 20/19 A3004 RMK AO2

10-Day Weather Forecast

Almanac

Astronomy

Aug. 24, 2016 Rise Set
Actual Time
Civil Twilight
Nautical Twilight
Astronomical Twilight
Moon
Length of Visible Light
Length of Day
Tomorrow will be .
, % of the Moon is Illuminated

Today's Extremes

State Highs State Lows

Community

WunderPhotos

Upload Photos

1,934,787 photos uploaded!

WunderBlog® & News

Nearby

Air Quality

  Air Quality AQ Index Pollutant
Not available.

Snow Depth

Station Depth Elevation

Earthquake Activity

City Distance Mag. Time & Date
Minimum magnitude displayed is 2.5.

Coastal Water Temperatures

Place Temperature

Stations

Nearby Weather Stations

Station Location Temp. Windchill Dew Point Humidity Wind Precip. Elev Updated Type
                   

Watches & Warnings

There are currently no watches in effect.